Time;durP1;ratioP1;P1;durP2;ratioP2;P2;SDS_P1;SDS_P2;PMS_P1;PMS_P2;Temp;Humidity;BMP_temperature;BMP_pressure;BME280_temperature;BME280_humidity;BME280_pressure;Samples;Min_cycle;Max_cycle;Signal;HPM_P1;HPM_P2
2022/04/10 00:01:35;;;;;;;7.85;3.95;;;;;;;-147.05;100.00;58721.66;5161669;27;20357;-65
2022/04/10 00:04:02;;;;;;;9.07;4.70;;;;;;;-147.05;100.00;58721.66;5167675;27;20043;-66
2022/04/10 00:06:29;;;;;;;9.57;4.35;;;;;;;-147.05;100.00;58721.66;5179801;27;20055;-66
2022/04/10 00:08:57;;;;;;;8.60;4.03;;;;;;;-147.05;100.00;58721.66;5178473;27;20077;-66
2022/04/10 00:11:24;;;;;;;10.02;3.95;;;;;;;-147.05;100.00;58721.66;5165874;27;20031;-66
2022/04/10 00:13:52;;;;;;;13.43;5.15;;;;;;;-147.05;100.00;58721.66;5175098;27;20775;-65
2022/04/10 00:16:19;;;;;;;13.35;4.85;;;;;;;-147.05;100.00;58721.66;5166728;27;20560;-64
2022/04/10 00:18:46;;;;;;;8.38;4.30;;;;;;;-147.05;100.00;58721.66;5166971;27;21198;-64
2022/04/10 00:21:13;;;;;;;11.73;4.45;;;;;;;-147.05;100.00;58721.66;5181033;27;20043;-64
2022/04/10 00:23:40;;;;;;;8.48;4.45;;;;;;;-147.05;100.00;58721.66;5178282;27;20035;-65
2022/04/10 00:26:12;;;;;;;12.50;4.28;;;;;;;-147.05;100.00;58721.66;5164925;27;20043;-65
2022/04/10 00:28:39;;;;;;;11.68;4.80;;;;;;;-147.05;100.00;58721.66;5167837;27;20085;-65
2022/04/10 00:31:06;;;;;;;9.85;4.45;;;;;;;-147.05;100.00;58721.66;5177436;27;20603;-65
2022/04/10 00:33:33;;;;;;;9.48;3.88;;;;;;;-147.05;100.00;58721.66;5164701;27;20563;-64
2022/04/10 00:36:01;;;;;;;8.48;4.25;;;;;;;-147.05;100.00;58721.66;5182714;27;20042;-67
2022/04/10 00:38:28;;;;;;;11.65;4.25;;;;;;;-147.05;100.00;58721.66;5169869;27;20042;-65
2022/04/10 00:40:55;;;;;;;10.38;4.18;;;;;;;-147.05;100.00;58721.66;5172250;27;20035;-66
2022/04/10 00:43:30;;;;;;;8.52;4.32;;;;;;;-147.05;100.00;58721.66;5178374;27;20872;-65
2022/04/10 00:45:58;;;;;;;9.93;3.80;;;;;;;-147.05;100.00;58721.66;5163812;27;20122;-67
2022/04/10 00:48:27;;;;;;;8.95;3.88;;;;;;;-147.05;100.00;58721.66;5175451;27;20078;-67
2022/04/10 00:53:41;;;;;;;9.23;4.18;;;;;;;-147.05;100.00;58721.66;5176191;27;20520;-67
2022/04/10 00:56:08;;;;;;;15.48;4.38;;;;;;;-147.05;100.00;58721.66;5167501;27;20043;-68
2022/04/10 00:58:35;;;;;;;11.10;4.30;;;;;;;-147.05;100.00;58721.66;5177496;27;20082;-67
2022/04/10 01:01:02;;;;;;;15.48;4.50;;;;;;;-147.05;100.00;58721.66;5168041;27;20527;-68
2022/04/10 01:03:29;;;;;;;9.80;4.05;;;;;;;-147.05;100.00;58721.66;5163379;27;20042;-67
2022/04/10 01:05:56;;;;;;;10.27;4.38;;;;;;;-147.05;100.00;58721.66;5175993;27;20054;-67
2022/04/10 01:08:24;;;;;;;10.13;4.80;;;;;;;-147.05;100.00;58721.66;5159458;27;20041;-68
2022/04/10 01:10:51;;;;;;;10.38;4.40;;;;;;;-147.05;100.00;58721.66;5172190;27;20039;-67
2022/04/10 01:13:19;;;;;;;10.27;4.60;;;;;;;-147.05;100.00;58721.66;5163526;27;20132;-68
2022/04/10 01:15:46;;;;;;;9.82;4.43;;;;;;;-147.05;100.00;58721.66;5161835;27;20135;-67
2022/04/10 01:18:15;;;;;;;9.10;4.40;;;;;;;-147.05;100.00;58721.66;5149664;27;20053;-66
2022/04/10 01:20:43;;;;;;;9.48;4.30;;;;;;;-147.05;100.00;58721.66;5153299;27;20115;-66
2022/04/10 01:23:11;;;;;;;9.57;4.47;;;;;;;-147.05;100.00;58721.66;5172817;27;20129;-65
2022/04/10 01:25:39;;;;;;;10.68;4.35;;;;;;;-147.05;100.00;58721.66;5150907;27;20039;-66
2022/04/10 01:28:12;;;;;;;11.35;5.32;;;;;;;-147.05;100.00;58721.66;5163795;27;20531;-66
2022/04/10 01:30:43;;;;;;;10.85;4.80;;;;;;;-147.05;100.00;58721.66;5155768;27;20569;-66
2022/04/10 01:33:10;;;;;;;10.38;4.82;;;;;;;-147.05;100.00;58721.66;5163410;27;20543;-66
2022/04/10 01:35:38;;;;;;;11.70;4.47;;;;;;;-147.05;100.00;58721.66;5163203;27;20058;-66
2022/04/10 01:38:11;;;;;;;9.90;4.80;;;;;;;-147.05;100.00;58721.66;5163513;27;20039;-66
2022/04/10 01:40:43;;;;;;;12.05;4.50;;;;;;;-147.05;100.00;58721.66;5149019;27;20071;-66
2022/04/10 01:43:11;;;;;;;9.85;5.00;;;;;;;-147.05;100.00;58721.66;5150757;27;20047;-66
2022/04/10 01:45:38;;;;;;;11.85;4.95;;;;;;;-147.05;100.00;58721.66;5164357;27;20066;-67
2022/04/10 01:48:05;;;;;;;10.13;4.85;;;;;;;-147.05;100.00;58721.66;5172656;27;20035;-66
2022/04/10 01:50:32;;;;;;;7.57;4.60;;;;;;;-147.05;100.00;58721.66;5172756;27;20400;-68
2022/04/10 01:53:03;;;;;;;11.90;5.28;;;;;;;-147.05;100.00;58721.66;5159318;27;20840;-67
2022/04/10 01:55:30;;;;;;;13.20;5.07;;;;;;;-147.05;100.00;58721.66;5162004;27;20047;-66
2022/04/10 01:57:58;;;;;;;13.23;4.78;;;;;;;-147.05;100.00;58721.66;5179962;27;20047;-66
2022/04/10 02:00:25;;;;;;;10.05;4.88;;;;;;;-147.05;100.00;58721.66;5159097;27;20759;-66
2022/04/10 02:02:53;;;;;;;9.77;4.80;;;;;;;-147.05;100.00;58721.66;5162252;27;20035;-66
2022/04/10 02:05:20;;;;;;;9.35;4.68;;;;;;;-147.05;100.00;58721.66;5150057;27;20044;-66
2022/04/10 02:07:47;;;;;;;12.77;4.88;;;;;;;-147.05;100.00;58721.66;5139239;27;20043;-67
2022/04/10 02:10:15;;;;;;;12.32;4.43;;;;;;;-147.05;100.00;58721.66;5138260;27;20126;-67
2022/04/10 02:12:42;;;;;;;9.30;5.00;;;;;;;-147.05;100.00;58721.66;5135972;27;20111;-68
2022/04/10 02:15:09;;;;;;;12.20;5.10;;;;;;;-147.05;100.00;58721.66;5139675;27;20040;-69
2022/04/10 02:17:37;;;;;;;9.88;4.93;;;;;;;-147.05;100.00;58721.66;5137511;27;20051;-70
2022/04/10 02:20:05;;;;;;;13.02;5.43;;;;;;;-147.05;100.00;58721.66;5141093;27;20043;-68
2022/04/10 02:22:32;;;;;;;14.10;5.00;;;;;;;-147.05;100.00;58721.66;5128625;27;20040;-66
2022/04/10 02:24:59;;;;;;;11.02;5.15;;;;;;;-147.05;100.00;58721.66;5128669;27;20040;-66
2022/04/10 02:27:27;;;;;;;9.82;5.22;;;;;;;-147.05;100.00;58721.66;5159131;27;20782;-66
2022/04/10 02:29:54;;;;;;;14.25;5.25;;;;;;;-147.05;100.00;58721.66;5135294;27;20111;-66
2022/04/10 02:32:23;;;;;;;8.10;4.47;;;;;;;-147.05;100.00;58721.66;5138161;27;20124;-65
2022/04/10 02:34:50;;;;;;;15.38;5.03;;;;;;;-147.05;100.00;58721.66;5151410;27;20044;-66
2022/04/10 02:37:20;;;;;;;8.20;4.60;;;;;;;-147.05;100.00;58721.66;5129924;27;20035;-66
2022/04/10 02:39:47;;;;;;;12.45;5.03;;;;;;;-147.05;100.00;58721.66;5129673;27;20750;-67
2022/04/10 02:42:14;;;;;;;12.70;5.13;;;;;;;-147.05;100.00;58721.66;5127715;27;20439;-67
2022/04/10 02:44:42;;;;;;;13.45;5.10;;;;;;;-147.05;100.00;58721.66;5130320;27;20035;-67
2022/04/10 02:47:08;;;;;;;10.75;5.38;;;;;;;-147.05;100.00;58721.66;5139410;27;20047;-66
2022/04/10 02:49:35;;;;;;;11.07;4.75;;;;;;;-147.05;100.00;58721.66;5120152;27;20070;-66
2022/04/10 02:52:03;;;;;;;11.75;5.18;;;;;;;-147.05;100.00;58721.66;5135509;27;20034;-66
2022/04/10 02:54:30;;;;;;;10.40;5.18;;;;;;;-147.05;100.00;58721.66;5152652;27;20517;-67
2022/04/10 02:56:58;;;;;;;12.77;5.20;;;;;;;-147.05;100.00;58721.66;5126816;27;21011;-67
2022/04/10 02:59:26;;;;;;;16.23;5.20;;;;;;;-147.05;100.00;58721.66;5125461;27;20044;-66
2022/04/10 03:01:53;;;;;;;10.43;5.28;;;;;;;-147.05;100.00;58721.66;5137002;27;20047;-66
2022/04/10 03:04:20;;;;;;;11.02;4.78;;;;;;;-147.05;100.00;58721.66;5136813;27;20104;-66
2022/04/10 03:06:47;;;;;;;9.82;4.80;;;;;;;-147.05;100.00;58721.66;5153253;27;20047;-66
2022/04/10 03:09:15;;;;;;;11.35;4.65;;;;;;;-147.05;100.00;58721.66;5163223;27;20568;-65
2022/04/10 03:11:42;;;;;;;12.02;5.32;;;;;;;-147.05;100.00;58721.66;5144311;27;20124;-66
2022/04/10 03:14:10;;;;;;;14.15;5.32;;;;;;;-147.05;100.00;58721.66;5146978;27;20557;-67
2022/04/10 03:16:37;;;;;;;10.25;5.63;;;;;;;-147.05;100.00;58721.66;5164609;27;20047;-67
2022/04/10 03:19:05;;;;;;;11.20;4.90;;;;;;;-147.05;100.00;58721.66;5145744;27;20039;-67
2022/04/10 03:21:32;;;;;;;11.68;5.22;;;;;;;-147.05;100.00;58721.66;5141377;27;20036;-67
2022/04/10 03:23:59;;;;;;;10.85;4.90;;;;;;;-147.05;100.00;58721.66;5147877;27;20036;-67
2022/04/10 03:26:26;;;;;;;11.68;5.15;;;;;;;-147.05;100.00;58721.66;5159179;27;20035;-67
2022/04/10 03:28:54;;;;;;;11.60;5.15;;;;;;;-147.05;100.00;58721.66;5149531;27;20090;-69
2022/04/10 03:31:22;;;;;;;11.32;5.47;;;;;;;-147.05;100.00;58721.66;5152615;27;20072;-67
2022/04/10 03:33:52;;;;;;;12.77;5.15;;;;;;;-147.05;100.00;58721.66;5166019;27;20035;-66
2022/04/10 03:36:19;;;;;;;11.18;4.97;;;;;;;-147.05;100.00;58721.66;5140843;27;20695;-68
2022/04/10 03:38:46;;;;;;;10.07;5.30;;;;;;;-147.05;100.00;58721.66;5137742;27;20532;-67
2022/04/10 03:41:13;;;;;;;10.57;5.65;;;;;;;-147.05;100.00;58721.66;5138944;27;20089;-68
2022/04/10 03:43:42;;;;;;;13.32;5.40;;;;;;;-147.05;100.00;58721.66;5156806;27;20043;-67
2022/04/10 03:46:09;;;;;;;12.40;4.95;;;;;;;-147.05;100.00;58721.66;5145953;27;20051;-68
2022/04/10 03:48:36;;;;;;;15.38;5.45;;;;;;;-147.05;100.00;58721.66;5152449;27;20385;-68
2022/04/10 03:51:04;;;;;;;9.40;4.93;;;;;;;-147.05;100.00;58721.66;5138004;27;20532;-68
2022/04/10 03:53:33;;;;;;;13.30;5.22;;;;;;;-147.05;100.00;58721.66;5146633;27;20117;-68
2022/04/10 03:56:01;;;;;;;13.30;5.75;;;;;;;-147.05;100.00;58721.66;5144874;27;20051;-68
2022/04/10 03:58:30;;;;;;;9.70;4.93;;;;;;;-147.05;100.00;58721.66;5159627;27;20845;-68
2022/04/10 04:00:57;;;;;;;15.65;5.90;;;;;;;-147.05;100.00;58721.66;5173148;27;20058;-67
2022/04/10 04:03:25;;;;;;;10.20;5.70;;;;;;;-147.05;100.00;58721.66;5148812;27;21122;-68
2022/04/10 04:05:53;;;;;;;13.80;6.03;;;;;;;-147.05;100.00;58721.66;5158609;27;20528;-68
2022/04/10 04:08:23;;;;;;;18.42;5.97;;;;;;;-147.05;100.00;58721.66;5159276;27;20054;-67
2022/04/10 04:10:52;;;;;;;11.98;5.90;;;;;;;-147.05;100.00;58721.66;5164626;27;20108;-66
2022/04/10 04:13:21;;;;;;;12.82;6.15;;;;;;;-147.05;100.00;58721.66;5147272;27;20039;-67
2022/04/10 04:15:48;;;;;;;14.77;6.03;;;;;;;-147.05;100.00;58721.66;5165698;27;20072;-66
2022/04/10 04:18:15;;;;;;;11.85;5.97;;;;;;;-147.05;100.00;58721.66;5146163;27;20042;-68
2022/04/10 04:20:42;;;;;;;11.45;5.72;;;;;;;-147.05;100.00;58721.66;5147511;27;20070;-66
2022/04/10 04:23:10;;;;;;;10.38;5.63;;;;;;;-147.05;100.00;58721.66;5162526;27;20038;-66
2022/04/10 04:25:37;;;;;;;11.68;5.70;;;;;;;-147.05;100.00;58721.66;5164488;27;20759;-67
2022/04/10 04:28:09;;;;;;;12.45;6.20;;;;;;;-147.05;100.00;58721.66;5161508;27;20114;-64
2022/04/10 04:30:36;;;;;;;9.73;5.32;;;;;;;-147.05;100.00;58721.66;5162188;27;20039;-65
2022/04/10 04:33:04;;;;;;;12.82;6.00;;;;;;;-147.05;100.00;58721.66;5152392;27;20062;-67
2022/04/10 04:35:33;;;;;;;14.38;6.10;;;;;;;-147.05;100.00;58721.66;5163047;27;20118;-65
2022/04/10 04:38:02;;;;;;;12.38;5.97;;;;;;;-147.05;100.00;58721.66;5176204;27;20137;-65
2022/04/10 04:40:30;;;;;;;12.80;7.28;;;;;;;-147.05;100.00;58721.66;5161208;27;20043;-67
2022/04/10 04:42:58;;;;;;;13.07;6.82;;;;;;;-147.05;100.00;58721.66;5163989;27;20047;-65
2022/04/10 04:45:28;;;;;;;10.50;5.95;;;;;;;-147.05;100.00;58721.66;5148168;27;20097;-67
2022/04/10 04:48:14;;;;;;;12.73;6.45;;;;;;;-147.05;100.00;58721.66;5156201;27;20043;-65
2022/04/10 04:50:44;;;;;;;13.70;6.60;;;;;;;-147.05;100.00;58721.66;5164261;27;20121;-65
2022/04/10 04:53:19;;;;;;;14.32;6.60;;;;;;;-147.05;100.00;58721.66;5163701;27;20075;-64
2022/04/10 04:55:46;;;;;;;14.07;6.47;;;;;;;-147.05;100.00;58721.66;5164003;27;20047;-64
2022/04/10 04:58:19;;;;;;;14.70;6.25;;;;;;;-147.05;100.00;58721.66;5165141;27;20065;-64
2022/04/10 05:00:47;;;;;;;16.58;7.13;;;;;;;-147.05;100.00;58721.66;5164359;27;20051;-64
2022/04/10 05:03:16;;;;;;;12.52;6.75;;;;;;;-147.05;100.00;58721.66;5168263;27;20057;-65
2022/04/10 05:05:44;;;;;;;11.70;6.75;;;;;;;-147.05;100.00;58721.66;5148597;27;20059;-64
2022/04/10 05:08:21;;;;;;;16.23;7.18;;;;;;;-147.05;100.00;58721.66;5143129;27;20063;-64
2022/04/10 05:10:50;;;;;;;15.48;7.35;;;;;;;-147.05;100.00;58721.66;5159667;27;20039;-64
2022/04/10 05:13:20;;;;;;;14.13;6.78;;;;;;;-147.05;100.00;58721.66;5152387;27;20495;-69
2022/04/10 05:15:49;;;;;;;13.80;6.90;;;;;;;-147.05;100.00;58721.66;5156581;27;20763;-68
2022/04/10 05:18:19;;;;;;;17.80;6.72;;;;;;;-147.05;100.00;58721.66;5162182;27;20134;-68
2022/04/10 05:20:48;;;;;;;14.68;6.80;;;;;;;-147.05;100.00;58721.66;5152102;27;20047;-69
2022/04/10 05:23:19;;;;;;;13.20;6.72;;;;;;;-147.05;100.00;58721.66;5154891;27;20045;-67
2022/04/10 05:25:54;;;;;;;10.52;5.72;;;;;;;-147.05;100.00;58721.66;5154343;27;20169;-67
2022/04/10 05:28:32;;;;;;;18.77;6.22;;;;;;;-147.05;100.00;58721.66;5163352;27;20058;-67
2022/04/10 05:31:04;;;;;;;9.50;6.07;;;;;;;-147.05;100.00;58721.66;5165013;27;20049;-67
2022/04/10 05:33:36;;;;;;;12.95;6.28;;;;;;;-147.05;100.00;58721.66;5161845;27;20054;-68
2022/04/10 05:36:04;;;;;;;8.73;5.50;;;;;;;-147.05;100.00;58721.66;5163742;27;20051;-65
2022/04/10 05:38:33;;;;;;;12.95;5.30;;;;;;;-147.05;100.00;58721.66;5151131;27;20043;-65
2022/04/10 05:41:00;;;;;;;10.38;5.72;;;;;;;-147.05;100.00;58721.66;5169787;27;20130;-64
2022/04/10 05:43:31;;;;;;;8.52;5.40;;;;;;;-147.05;100.00;58721.66;5163151;27;20807;-66
2022/04/10 05:45:59;;;;;;;9.63;5.95;;;;;;;-147.05;100.00;58721.66;5164398;27;20092;-67
2022/04/10 05:48:27;;;;;;;10.43;6.47;;;;;;;-147.05;100.00;58721.66;5159889;27;20043;-67
2022/04/10 05:50:54;;;;;;;11.07;6.60;;;;;;;-147.05;100.00;58721.66;5163488;27;20035;-67
2022/04/10 05:53:24;;;;;;;18.75;6.47;;;;;;;-147.05;100.00;58721.66;5153662;27;20043;-68
2022/04/10 05:55:51;;;;;;;11.70;7.95;;;;;;;-147.05;100.00;58721.66;5157451;27;20066;-65
2022/04/10 05:58:24;;;;;;;13.75;7.40;;;;;;;-147.05;100.00;58721.66;5152113;27;20072;-66
2022/04/10 06:00:53;;;;;;;14.75;7.25;;;;;;;-147.05;100.00;58721.66;5174923;27;20039;-69
2022/04/10 06:03:21;;;;;;;13.60;7.18;;;;;;;-147.05;100.00;58721.66;5149160;27;20713;-65
2022/04/10 06:05:52;;;;;;;22.35;7.88;;;;;;;-147.05;100.00;58721.66;5140818;27;20051;-67
2022/04/10 06:08:24;;;;;;;16.67;7.60;;;;;;;-147.05;100.00;58721.66;5126595;27;20119;-67
2022/04/10 06:10:51;;;;;;;12.25;7.53;;;;;;;-147.05;100.00;58721.66;5126430;27;20044;-66
2022/04/10 06:13:20;;;;;;;12.15;7.13;;;;;;;-147.05;100.00;58721.66;5112690;27;20039;-67
2022/04/10 06:15:52;;;;;;;11.23;7.50;;;;;;;-147.05;100.00;58721.66;5120377;27;20044;-68
2022/04/10 06:18:21;;;;;;;15.77;8.50;;;;;;;-147.05;100.00;58721.66;5133777;27;20086;-68
2022/04/10 06:20:53;;;;;;;13.13;8.02;;;;;;;-147.05;100.00;58721.66;5131100;27;20044;-67
2022/04/10 06:23:23;;;;;;;16.02;8.00;;;;;;;-147.05;100.00;58721.66;5145371;27;20893;-67
2022/04/10 06:25:55;;;;;;;14.32;7.50;;;;;;;-147.05;100.00;58721.66;5130127;27;20047;-67
2022/04/10 06:28:23;;;;;;;12.65;7.28;;;;;;;-147.05;100.00;58721.66;5123533;27;20886;-66
2022/04/10 06:30:50;;;;;;;10.98;6.88;;;;;;;-147.05;100.00;58721.66;5124550;27;20049;-67
2022/04/10 06:33:24;;;;;;;14.15;7.18;;;;;;;-147.05;100.00;58721.66;5133489;27;20054;-66
2022/04/10 06:35:56;;;;;;;14.50;6.60;;;;;;;-147.05;100.00;58721.66;5117681;27;20823;-66
2022/04/10 06:38:24;;;;;;;15.30;6.85;;;;;;;-147.05;100.00;58721.66;5133264;27;20774;-68
2022/04/10 06:41:01;;;;;;;12.95;6.28;;;;;;;-147.05;100.00;58721.66;5133130;27;20044;-67
2022/04/10 06:43:28;;;;;;;12.35;5.63;;;;;;;-147.05;100.00;58721.66;5118512;27;20541;-66
2022/04/10 06:46:09;;;;;;;9.38;5.38;;;;;;;-147.05;100.00;58721.66;5118083;27;20064;-67
2022/04/10 06:48:44;;;;;;;9.25;5.32;;;;;;;-147.05;100.00;58721.66;5134475;27;20039;-68
2022/04/10 06:51:11;;;;;;;9.88;6.05;;;;;;;-147.05;100.00;58721.66;5122212;27;20040;-68
2022/04/10 06:53:39;;;;;;;11.95;5.68;;;;;;;-147.05;100.00;58721.66;5127194;27;20040;-67
2022/04/10 06:56:07;;;;;;;12.63;6.05;;;;;;;-147.05;100.00;58721.66;5125435;27;20617;-68
2022/04/10 06:58:38;;;;;;;9.18;5.20;;;;;;;-147.05;100.00;58721.66;5137866;27;20070;-69
2022/04/10 07:01:13;;;;;;;11.98;5.28;;;;;;;-147.05;100.00;58721.66;5124813;27;20040;-65
2022/04/10 07:03:42;;;;;;;9.20;4.65;;;;;;;-147.05;100.00;58721.66;5125535;27;20548;-67
2022/04/10 07:06:12;;;;;;;8.15;4.75;;;;;;;-147.05;100.00;58721.66;5138634;27;20101;-67
2022/04/10 07:08:40;;;;;;;8.38;4.57;;;;;;;-147.05;100.00;58721.66;5149564;27;20816;-68
2022/04/10 07:14:34;;;;;;;10.20;3.97;;;;;;;5.80;70.01;101952.41;5044061;27;20950;-68
2022/04/10 07:17:02;;;;;;;10.25;3.53;;;;;;;5.88;69.18;101955.09;5044231;28;20549;-67
2022/04/10 07:19:30;;;;;;;8.88;3.67;;;;;;;6.01;67.55;101948.22;5044205;28;20096;-69
2022/04/10 07:24:47;;;;;;;9.40;3.17;;;;;;;6.23;68.64;101959.69;5059580;28;20056;-67
2022/04/10 07:27:15;;;;;;;8.75;3.47;;;;;;;6.30;67.26;101960.59;5058505;28;20054;-67
2022/04/10 07:30:12;;;;;;;8.18;3.20;;;;;;;6.41;67.65;101964.16;5038352;28;20112;-67
2022/04/10 07:32:40;;;;;;;9.63;3.60;;;;;;;6.52;67.12;101957.22;5043108;28;20060;-68
2022/04/10 07:35:16;;;;;;;6.93;3.30;;;;;;;6.70;67.42;101958.16;5045149;28;20046;-67
2022/04/10 07:38:10;;;;;;;7.50;3.50;;;;;;;6.93;67.12;101960.00;5044726;28;20141;-67
2022/04/10 07:40:41;;;;;;;10.75;3.42;;;;;;;7.08;64.19;101967.03;5042895;28;20038;-69
2022/04/10 07:43:13;;;;;;;;;;;;;;;7.15;64.44;101974.91;5059813;28;20072;-68
2022/04/10 07:48:42;;;;;;;5.47;2.03;;;;;;;7.75;59.09;101987.22;5048398;28;20147;-70
2022/04/10 07:51:12;;;;;;;6.72;1.80;;;;;;;7.43;59.81;102001.19;5057843;28;20798;-68
2022/04/10 07:53:53;;;;;;;6.30;2.22;;;;;;;7.35;60.51;102005.56;5039033;28;20069;-70
2022/04/10 07:56:23;;;;;;;11.18;2.30;;;;;;;7.43;60.97;102006.44;5028554;28;20507;-67
2022/04/10 07:58:50;;;;;;;11.48;2.72;;;;;;;7.70;59.40;102009.09;5038298;28;20468;-70
2022/04/10 08:01:35;;;;;;;8.02;2.28;;;;;;;7.72;60.49;102015.22;5019800;28;20065;-68
2022/04/10 08:04:07;;;;;;;7.93;2.00;;;;;;;7.72;59.13;102012.59;5038119;28;20479;-66
2022/04/10 08:06:56;;;;;;;7.35;2.05;;;;;;;7.96;60.45;102008.19;5025033;28;20101;-69
2022/04/10 08:09:24;;;;;;;6.80;2.10;;;;;;;8.03;60.37;102016.06;5031701;28;20134;-69
2022/04/10 08:11:51;;;;;;;7.43;2.20;;;;;;;7.97;59.66;102030.94;5022106;28;20038;-70
2022/04/10 08:14:19;;;;;;;9.05;2.42;;;;;;;7.75;60.08;102039.72;5022953;28;20488;-70
2022/04/10 08:16:47;;;;;;;13.02;2.20;;;;;;;7.60;61.16;102034.44;5022796;28;20037;-71
2022/04/10 08:19:15;;;;;;;5.70;1.60;;;;;;;7.48;60.78;102043.19;5024074;28;20501;-71
2022/04/10 08:21:42;;;;;;;6.22;1.67;;;;;;;7.60;60.30;102047.56;5023250;28;20490;-72
2022/04/10 08:24:09;;;;;;;4.13;1.50;;;;;;;7.69;60.72;102034.44;5019934;28;20043;-71
2022/04/10 08:26:36;;;;;;;5.38;1.90;;;;;;;8.05;60.58;102037.97;5009035;28;20130;-71
2022/04/10 08:29:04;;;;;;;4.15;1.60;;;;;;;8.42;58.47;102037.03;5008761;28;20039;-71
2022/04/10 08:31:31;;;;;;;5.22;1.40;;;;;;;8.51;57.66;102031.78;5009987;28;20359;-70
2022/04/10 08:33:59;;;;;;;5.00;1.17;;;;;;;8.54;57.40;102028.28;5009314;28;20070;-69
2022/04/10 08:36:26;;;;;;;4.25;1.65;;;;;;;8.47;57.85;102024.78;5009782;28;20078;-72
2022/04/10 08:38:53;;;;;;;3.85;1.50;;;;;;;8.14;57.20;102041.44;5010062;28;20113;-72
2022/04/10 08:41:23;;;;;;;6.75;1.30;;;;;;;7.86;57.60;102038.84;5011895;28;20041;-71
2022/04/10 08:43:52;;;;;;;2.92;1.35;;;;;;;7.94;58.47;102047.59;5009646;28;20587;-73
2022/04/10 08:46:19;;;;;;;6.72;1.73;;;;;;;8.17;58.08;102041.47;5009983;28;20043;-73
2022/04/10 08:48:49;;;;;;;4.43;1.33;;;;;;;8.46;57.34;102041.38;5009762;28;20049;-67
2022/04/10 08:51:16;;;;;;;3.75;1.30;;;;;;;8.42;56.92;102036.16;5011800;28;20579;-69
2022/04/10 08:53:44;;;;;;;2.20;1.00;;;;;;;8.16;55.77;102042.34;5008281;28;20046;-71
2022/04/10 08:56:11;;;;;;;3.95;1.20;;;;;;;7.83;56.69;102047.59;5008116;28;20077;-69
2022/04/10 08:58:39;;;;;;;4.00;1.20;;;;;;;7.89;57.93;102051.94;5007891;28;20511;-71
2022/04/10 09:01:11;;;;;;;4.15;1.00;;;;;;;7.97;55.09;102046.72;5027392;28;20512;-70
2022/04/10 09:03:39;;;;;;;2.63;1.10;;;;;;;7.92;55.21;102052.84;5010122;28;20030;-69
2022/04/10 09:06:10;;;;;;;4.85;0.98;;;;;;;8.08;55.70;102050.22;5010821;28;20030;-68
2022/04/10 09:08:39;;;;;;;4.50;1.17;;;;;;;8.19;55.95;102053.72;5003152;28;20051;-68
2022/04/10 09:11:08;;;;;;;5.00;1.33;;;;;;;8.27;56.15;102058.97;5011659;28;20069;-71
2022/04/10 09:13:38;;;;;;;5.57;0.90;;;;;;;8.45;54.12;102059.81;5008539;28;20058;-71
2022/04/10 09:16:17;;;;;;;4.95;1.15;;;;;;;8.59;55.16;102052.81;5009985;28;20499;-70
2022/04/10 09:19:02;;;;;;;6.10;1.42;;;;;;;8.83;54.40;102062.38;5009371;28;20043;-69
2022/04/10 09:21:37;;;;;;;5.18;1.08;;;;;;;8.81;52.49;102060.59;5009222;28;20503;-70
2022/04/10 09:24:11;;;;;;;5.05;1.10;;;;;;;8.71;51.81;102065.03;5009961;28;20031;-71
2022/04/10 09:26:50;;;;;;;4.03;1.10;;;;;;;8.71;53.45;102054.50;5010034;28;20489;-71
2022/04/10 09:29:20;;;;;;;6.78;1.30;;;;;;;8.81;53.63;102057.97;5008081;28;20041;-70
2022/04/10 09:31:51;;;;;;;4.07;0.95;;;;;;;8.92;52.63;102056.19;5015857;28;20038;-70
2022/04/10 09:34:21;;;;;;;5.45;1.15;;;;;;;9.06;53.50;102063.16;5010629;28;20527;-68
2022/04/10 09:37:08;;;;;;;8.38;1.75;;;;;;;9.21;52.95;102063.06;5007430;28;20073;-70
2022/04/10 09:39:37;;;;;;;4.35;1.10;;;;;;;9.25;52.33;102056.91;5009553;28;20046;-69
2022/04/10 09:42:10;;;;;;;5.05;1.27;;;;;;;9.38;52.55;102057.72;5009618;28;20046;-68
2022/04/10 09:44:58;;;;;;;4.93;1.33;;;;;;;9.47;50.47;102052.38;5010124;28;20047;-70
2022/04/10 09:47:26;;;;;;;5.28;1.75;;;;;;;9.47;51.25;102054.16;5017522;28;20069;-70
2022/04/10 09:50:05;;;;;;;5.03;0.98;;;;;;;9.67;51.19;102058.41;5013755;28;20042;-69
2022/04/10 09:52:37;;;;;;;3.55;1.20;;;;;;;9.91;49.21;102057.34;5011447;28;20046;-70
2022/04/10 09:55:08;;;;;;;7.22;1.50;;;;;;;9.67;49.34;102056.66;5006495;28;20141;-70
2022/04/10 09:57:36;;;;;;;6.70;1.60;;;;;;;9.67;49.34;102071.56;5008367;28;20066;-69
2022/04/10 10:00:07;;;;;;;4.97;1.20;;;;;;;9.77;49.72;102047.78;5007671;28;20038;-68
2022/04/10 10:02:42;;;;;;;4.35;0.90;;;;;;;10.11;47.70;102062.47;5003401;28;20124;-69
2022/04/10 10:05:09;;;;;;;5.78;1.02;;;;;;;10.08;47.35;102067.75;5008189;28;20042;-69
2022/04/10 10:07:37;;;;;;;6.82;1.27;;;;;;;9.85;49.88;102053.00;5008236;28;20053;-69
2022/04/10 10:10:08;;;;;;;5.28;1.38;;;;;;;10.02;50.41;102059.91;5018540;28;20034;-68
2022/04/10 10:12:36;;;;;;;7.03;1.15;;;;;;;10.51;47.11;102056.84;5008317;28;20461;-69
2022/04/10 10:15:03;;;;;;;5.45;1.17;;;;;;;10.43;46.50;102053.38;5010178;28;20046;-67
2022/04/10 10:17:32;;;;;;;5.45;1.20;;;;;;;10.50;47.20;102048.94;5010303;28;20039;-67
2022/04/10 10:20:00;;;;;;;4.00;1.20;;;;;;;10.53;47.45;102049.75;5016912;28;20077;-71
2022/04/10 10:22:28;;;;;;;4.50;1.27;;;;;;;10.81;47.80;102049.47;5007590;28;20038;-68
2022/04/10 10:25:12;;;;;;;3.25;0.98;;;;;;;10.60;46.73;102050.56;5007169;28;20042;-68
2022/04/10 10:28:28;;;;;;;4.93;1.33;;;;;;;10.40;47.51;102037.63;5008042;28;20041;-68
2022/04/10 10:31:16;;;;;;;6.38;1.40;;;;;;;10.73;46.74;102053.97;5002435;28;20049;-67
2022/04/10 10:33:54;;;;;;;4.35;1.40;;;;;;;10.62;45.11;102047.94;5008942;28;20047;-70
2022/04/10 10:36:26;;;;;;;7.88;1.25;;;;;;;10.68;44.22;102047.84;5016194;28;20049;-68
2022/04/10 10:38:56;;;;;;;2.70;0.93;;;;;;;10.74;45.40;102044.28;5011954;28;20039;-68
2022/04/10 10:41:24;;;;;;;4.80;1.23;;;;;;;10.41;45.89;102050.78;5008769;28;20043;-67
2022/04/10 10:43:55;;;;;;;3.35;1.20;;;;;;;10.81;46.13;102045.94;5008840;28;21201;-68
2022/04/10 10:46:32;;;;;;;4.03;0.85;;;;;;;11.27;45.12;102042.72;5008801;28;20046;-67
2022/04/10 10:49:19;;;;;;;3.65;1.00;;;;;;;11.50;43.21;102038.84;5008870;28;20054;-69
2022/04/10 10:51:51;;;;;;;2.80;0.90;;;;;;;11.64;41.83;102036.88;5007722;28;20419;-69
2022/04/10 10:54:24;;;;;;;6.45;1.40;;;;;;;12.03;42.92;102038.94;5009213;28;20081;-70
2022/04/10 10:56:52;;;;;;;3.55;1.00;;;;;;;12.33;42.85;102034.00;5022918;28;20043;-70
2022/04/10 10:59:43;;;;;;;2.83;0.90;;;;;;;12.36;41.41;102039.19;5023218;28;20042;-70
2022/04/10 11:02:17;;;;;;;6.28;1.10;;;;;;;11.81;40.89;102039.25;5017288;28;20308;-69
2022/04/10 11:05:07;;;;;;;2.95;0.80;;;;;;;11.93;40.38;102040.81;5018542;28;20035;-68
2022/04/10 11:07:39;;;;;;;2.25;0.82;;;;;;;11.76;40.29;102035.81;5016953;28;20614;-67
2022/04/10 11:10:11;;;;;;;3.85;1.15;;;;;;;11.90;41.80;102034.72;5009355;28;20048;-71
2022/04/10 11:12:52;;;;;;;5.07;1.20;;;;;;;11.93;42.58;102026.75;5004042;28;20046;-69
2022/04/10 11:15:23;;;;;;;3.22;0.90;;;;;;;12.20;41.56;102027.19;5000687;28;20074;-69
2022/04/10 11:17:53;;;;;;;7.25;1.10;;;;;;;12.23;41.33;102022.69;5016027;28;20090;-71
2022/04/10 11:20:23;;;;;;;3.90;1.00;;;;;;;12.45;42.36;102010.88;5009249;28;21007;-68
2022/04/10 11:22:51;;;;;;;3.88;0.68;;;;;;;12.39;40.09;102025.06;5007819;28;20082;-70
2022/04/10 11:25:48;;;;;;;3.80;0.75;;;;;;;11.85;37.30;102021.59;5009038;28;20038;-68
2022/04/10 11:28:15;;;;;;;3.15;0.90;;;;;;;11.89;39.01;102032.97;5008882;28;20054;-68
2022/04/10 11:30:46;;;;;;;3.38;0.80;;;;;;;11.71;39.21;102028.84;5009199;28;20499;-71
2022/04/10 11:33:14;;;;;;;3.08;0.93;;;;;;;11.73;38.93;102020.03;5009157;28;20074;-68
2022/04/10 11:35:54;;;;;;;4.00;0.82;;;;;;;12.01;39.17;102018.69;5007535;28;20125;-68
2022/04/10 11:38:24;;;;;;;6.15;1.20;;;;;;;12.35;40.93;102026.03;5007479;28;20520;-68
2022/04/10 11:40:52;;;;;;;6.38;1.10;;;;;;;12.43;39.91;102019.69;5008113;28;20793;-71